CBD6 weather

Nahanni Butte Airport
Nahanni Butte, Northwest Territories, Canada

Public forecast

Using degrees Celsius for public forecast. Weather courtesy of forecast.io.

Closest aviation weather report (METAR) to Nahanni Butte Airport

Report is more than 6 hours old.

Closest report is Fort Liard Airport, 47.7 nm (88.4 km) S. Retrieved 2019/10/15 22:00 UTC (18 hours ago):

CYJF 152200Z 05012G17KT 7SM -SN SCT016 OVC023 M01/M03 A2969 RMK ST3SC5 DIST BR ALQDS/S02 AFT 12Z/LAST STFD OBS/NXT 161400Z SLP066

Closest aviation forecast (TAF) to Nahanni Butte Airport

Closest forecast is Fort Simpson Airport, 75.8 nm (140.4 km) NE. Retrieved 2019/10/16 12:45 UTC (3 hours ago):

TAF CYFS 161142Z 1612/1624 VRB03KT 1SM -SN OVC006 TEMPO 1612/1615 4SM -SN OVC012 FM161500 32008KT P6SM SCT006 BKN012 OVC060 TEMPO 1615/1624 4SM -SN BKN006 OVC012 RMK NXT FCST BY 161800Z